sensor_id;sensor_type;location;lat;lon;timestamp;pressure;altitude;pressure_sealevel;temperature;humidity
66524;BME280;53350;52.210;5.160;2023-04-12T00:02:08;100506.22;;;10.92;73.85
66524;BME280;53350;52.210;5.160;2023-04-12T00:04:35;100471.78;;;10.96;73.43
66524;BME280;53350;52.210;5.160;2023-04-12T00:07:01;100472.69;;;10.94;73.95
66524;BME280;53350;52.210;5.160;2023-04-12T00:09:28;100474.63;;;10.83;74.98
66524;BME280;53350;52.210;5.160;2023-04-12T00:11:57;100471.09;;;10.88;74.67
66524;BME280;53350;52.210;5.160;2023-04-12T00:14:24;100455.81;;;10.79;75.65
66524;BME280;53350;52.210;5.160;2023-04-12T00:16:51;100462.56;;;10.86;74.58
66524;BME280;53350;52.210;5.160;2023-04-12T00:19:17;100446.34;;;10.79;75.38
66524;BME280;53350;52.210;5.160;2023-04-12T00:21:44;100442.88;;;10.82;75.06
66524;BME280;53350;52.210;5.160;2023-04-12T00:24:11;100436.00;;;10.81;74.92
66524;BME280;53350;52.210;5.160;2023-04-12T00:26:38;100426.50;;;10.83;75.06
66524;BME280;53350;52.210;5.160;2023-04-12T00:29:06;100425.69;;;10.83;75.40
66524;BME280;53350;52.210;5.160;2023-04-12T00:31:32;100420.56;;;10.81;75.89
66524;BME280;53350;52.210;5.160;2023-04-12T00:33:59;100417.97;;;10.81;75.68
66524;BME280;53350;52.210;5.160;2023-04-12T00:36:25;100406.69;;;10.87;75.51
66524;BME280;53350;52.210;5.160;2023-04-12T00:38:52;100391.22;;;10.88;75.43
66524;BME280;53350;52.210;5.160;2023-04-12T00:41:18;100375.75;;;10.88;75.35
66524;BME280;53350;52.210;5.160;2023-04-12T00:43:45;100364.81;;;10.77;76.16
66524;BME280;53350;52.210;5.160;2023-04-12T00:46:13;100357.16;;;10.74;75.67
66524;BME280;53350;52.210;5.160;2023-04-12T00:48:42;100356.34;;;10.72;75.88
66524;BME280;53350;52.210;5.160;2023-04-12T00:51:09;100343.53;;;10.67;76.41
66524;BME280;53350;52.210;5.160;2023-04-12T00:53:37;100323.03;;;10.63;76.14
66524;BME280;53350;52.210;5.160;2023-04-12T00:56:05;100322.06;;;10.68;76.04
66524;BME280;53350;52.210;5.160;2023-04-12T00:58:36;100321.34;;;10.63;76.30
66524;BME280;53350;52.210;5.160;2023-04-12T01:01:02;100319.53;;;10.67;76.05
66524;BME280;53350;52.210;5.160;2023-04-12T01:03:30;100328.50;;;10.49;76.72
66524;BME280;53350;52.210;5.160;2023-04-12T01:06:03;100320.94;;;10.39;77.38
66524;BME280;53350;52.210;5.160;2023-04-12T01:08:38;100308.94;;;10.40;77.20
66524;BME280;53350;52.210;5.160;2023-04-12T01:11:12;100275.72;;;10.24;77.20
66524;BME280;53350;52.210;5.160;2023-04-12T01:13:44;100291.97;;;10.26;77.76
66524;BME280;53350;52.210;5.160;2023-04-12T01:16:15;100274.09;;;10.20;77.82
66524;BME280;53350;52.210;5.160;2023-04-12T01:18:47;100275.50;;;10.37;77.06
66524;BME280;53350;52.210;5.160;2023-04-12T01:21:21;100265.13;;;10.41;77.10
66524;BME280;53350;52.210;5.160;2023-04-12T01:24:06;100258.41;;;10.34;77.41
66524;BME280;53350;52.210;5.160;2023-04-12T01:26:41;100245.50;;;10.36;77.16
66524;BME280;53350;52.210;5.160;2023-04-12T01:29:11;100241.31;;;10.29;77.81
66524;BME280;53350;52.210;5.160;2023-04-12T01:31:40;100233.75;;;10.21;78.04
66524;BME280;53350;52.210;5.160;2023-04-12T01:34:07;100226.22;;;10.12;78.24
66524;BME280;53350;52.210;5.160;2023-04-12T01:36:36;100223.44;;;10.21;77.72
66524;BME280;53350;52.210;5.160;2023-04-12T01:39:03;100209.00;;;10.14;78.39
66524;BME280;53350;52.210;5.160;2023-04-12T01:41:31;100205.78;;;10.05;78.78
66524;BME280;53350;52.210;5.160;2023-04-12T01:43:58;100203.88;;;10.14;78.10
66524;BME280;53350;52.210;5.160;2023-04-12T01:46:26;100187.44;;;10.19;78.15
66524;BME280;53350;52.210;5.160;2023-04-12T01:48:52;100189.25;;;10.16;78.33
66524;BME280;53350;52.210;5.160;2023-04-12T01:51:28;100166.28;;;10.08;78.60
66524;BME280;53350;52.210;5.160;2023-04-12T01:53:58;100175.53;;;10.17;78.36
66524;BME280;53350;52.210;5.160;2023-04-12T01:56:29;100162.06;;;10.04;79.09
66524;BME280;53350;52.210;5.160;2023-04-12T01:58:56;100166.06;;;10.17;78.67
66524;BME280;53350;52.210;5.160;2023-04-12T02:01:25;100149.59;;;10.24;78.15
66524;BME280;53350;52.210;5.160;2023-04-12T02:03:54;100151.34;;;10.24;78.20
66524;BME280;53350;52.210;5.160;2023-04-12T02:06:23;100143.69;;;10.19;78.57
66524;BME280;53350;52.210;5.160;2023-04-12T02:08:56;100122.19;;;10.22;78.41
66524;BME280;53350;52.210;5.160;2023-04-12T02:11:22;100120.47;;;10.24;78.33
66524;BME280;53350;52.210;5.160;2023-04-12T02:13:49;100121.28;;;10.24;78.49
66524;BME280;53350;52.210;5.160;2023-04-12T02:16:15;100120.59;;;10.16;78.95
66524;BME280;53350;52.210;5.160;2023-04-12T02:18:46;100103.31;;;10.23;78.82
66524;BME280;53350;52.210;5.160;2023-04-12T02:21:12;100101.53;;;10.25;78.57
66524;BME280;53350;52.210;5.160;2023-04-12T02:23:38;100097.25;;;10.25;78.28
66524;BME280;53350;52.210;5.160;2023-04-12T02:26:06;100090.25;;;10.31;78.20
66524;BME280;53350;52.210;5.160;2023-04-12T02:28:32;100080.06;;;10.26;78.59
66524;BME280;53350;52.210;5.160;2023-04-12T02:30:59;100080.16;;;10.23;78.72
66524;BME280;53350;52.210;5.160;2023-04-12T02:33:25;100078.38;;;10.25;78.85
66524;BME280;53350;52.210;5.160;2023-04-12T02:35:54;100064.19;;;10.08;79.18
66524;BME280;53350;52.210;5.160;2023-04-12T02:38:21;100061.38;;;10.18;79.16
66524;BME280;53350;52.210;5.160;2023-04-12T02:40:48;100053.53;;;10.24;79.44
66524;BME280;53350;52.210;5.160;2023-04-12T02:43:14;100041.69;;;10.17;79.25
66524;BME280;53350;52.210;5.160;2023-04-12T02:45:41;100039.97;;;10.17;79.48
66524;BME280;53350;52.210;5.160;2023-04-12T02:48:07;100039.03;;;10.20;79.53
66524;BME280;53350;52.210;5.160;2023-04-12T02:50:35;100037.22;;;10.23;79.18
66524;BME280;53350;52.210;5.160;2023-04-12T02:53:03;100026.84;;;10.26;79.16
66524;BME280;53350;52.210;5.160;2023-04-12T02:55:30;100004.56;;;10.27;79.27
66524;BME280;53350;52.210;5.160;2023-04-12T02:57:56;100003.59;;;10.31;79.34
66524;BME280;53350;52.210;5.160;2023-04-12T03:00:23;100006.97;;;10.33;79.25
66524;BME280;53350;52.210;5.160;2023-04-12T03:02:49;99994.13;;;10.32;79.21
66524;BME280;53350;52.210;5.160;2023-04-12T03:05:17;99996.22;;;10.17;80.63
66524;BME280;53350;52.210;5.160;2023-04-12T03:07:43;99989.19;;;10.24;79.41
66524;BME280;53350;52.210;5.160;2023-04-12T03:10:11;99985.25;;;10.09;80.46
66524;BME280;53350;52.210;5.160;2023-04-12T03:12:38;99974.88;;;10.12;80.31
66524;BME280;53350;52.210;5.160;2023-04-12T03:15:05;99971.47;;;10.12;80.35
66524;BME280;53350;52.210;5.160;2023-04-12T03:17:32;99973.91;;;10.16;79.75
66524;BME280;53350;52.210;5.160;2023-04-12T03:20:02;99972.13;;;10.20;79.86
66524;BME280;53350;52.210;5.160;2023-04-12T03:22:30;99965.31;;;10.17;80.20
66524;BME280;53350;52.210;5.160;2023-04-12T03:24:56;99959.34;;;10.17;80.13
66524;BME280;53350;52.210;5.160;2023-04-12T03:27:24;99968.81;;;10.15;80.40
66524;BME280;53350;52.210;5.160;2023-04-12T03:29:51;99952.41;;;10.19;80.48
66524;BME280;53350;52.210;5.160;2023-04-12T03:32:17;99952.41;;;10.19;80.55
66524;BME280;53350;52.210;5.160;2023-04-12T03:34:45;99945.91;;;10.05;81.42
66524;BME280;53350;52.210;5.160;2023-04-12T03:37:12;99942.56;;;10.00;81.40
66524;BME280;53350;52.210;5.160;2023-04-12T03:39:38;99942.72;;;9.94;82.64
66524;BME280;53350;52.210;5.160;2023-04-12T03:42:05;99933.44;;;9.88;81.73
66524;BME280;53350;52.210;5.160;2023-04-12T03:44:33;99929.03;;;9.94;81.97
66524;BME280;53350;52.210;5.160;2023-04-12T03:46:59;99910.94;;;9.97;81.82
66524;BME280;53350;52.210;5.160;2023-04-12T03:49:26;99908.19;;;10.04;81.13
66524;BME280;53350;52.210;5.160;2023-04-12T03:51:52;99904.66;;;10.08;81.48
66524;BME280;53350;52.210;5.160;2023-04-12T03:54:19;99907.00;;;10.16;80.83
66524;BME280;53350;52.210;5.160;2023-04-12T03:56:46;99898.53;;;10.13;81.04
66524;BME280;53350;52.210;5.160;2023-04-12T03:59:12;99878.97;;;10.07;80.81
66524;BME280;53350;52.210;5.160;2023-04-12T04:01:40;99880.66;;;10.08;81.14
66524;BME280;53350;52.210;5.160;2023-04-12T04:04:07;99863.66;;;10.02;81.87
66524;BME280;53350;52.210;5.160;2023-04-12T04:06:33;99858.53;;;10.01;81.34
66524;BME280;53350;52.210;5.160;2023-04-12T04:09:00;99862.00;;;10.00;81.45
66524;BME280;53350;52.210;5.160;2023-04-12T04:11:27;99849.88;;;10.03;81.20
66524;BME280;53350;52.210;5.160;2023-04-12T04:13:53;99863.81;;;9.95;82.29
66524;BME280;53350;52.210;5.160;2023-04-12T04:16:19;99845.16;;;9.88;82.79
66524;BME280;53350;52.210;5.160;2023-04-12T04:18:47;99849.09;;;10.01;81.88
66524;BME280;53350;52.210;5.160;2023-04-12T04:21:14;99846.44;;;10.04;81.71
66524;BME280;53350;52.210;5.160;2023-04-12T04:23:40;99831.81;;;10.05;81.56
66524;BME280;53350;52.210;5.160;2023-04-12T04:26:09;99825.16;;;9.98;82.26
66524;BME280;53350;52.210;5.160;2023-04-12T04:28:36;99833.66;;;10.01;81.95
66524;BME280;53350;52.210;5.160;2023-04-12T04:31:04;99840.59;;;9.98;82.42
66524;BME280;53350;52.210;5.160;2023-04-12T04:33:30;99832.72;;;10.04;81.95
66524;BME280;53350;52.210;5.160;2023-04-12T04:35:58;99842.97;;;10.05;82.15
66524;BME280;53350;52.210;5.160;2023-04-12T04:38:25;99832.78;;;10.02;81.66
66524;BME280;53350;52.210;5.160;2023-04-12T04:40:51;99831.94;;;10.00;82.04
66524;BME280;53350;52.210;5.160;2023-04-12T04:43:18;99827.00;;;9.92;83.01
66524;BME280;53350;52.210;5.160;2023-04-12T04:45:45;99811.78;;;9.85;82.95
66524;BME280;53350;52.210;5.160;2023-04-12T04:48:13;99829.38;;;10.00;82.61
66524;BME280;53350;52.210;5.160;2023-04-12T04:50:40;99829.28;;;10.03;82.36
66524;BME280;53350;52.210;5.160;2023-04-12T04:53:09;99829.28;;;10.03;82.86
66524;BME280;53350;52.210;5.160;2023-04-12T04:55:35;99830.25;;;10.01;83.14
66524;BME280;53350;52.210;5.160;2023-04-12T04:58:02;99825.19;;;9.96;83.58
66524;BME280;53350;52.210;5.160;2023-04-12T05:00:28;99819.13;;;9.99;83.47
66524;BME280;53350;52.210;5.160;2023-04-12T05:02:55;99822.53;;;9.99;83.44
66524;BME280;53350;52.210;5.160;2023-04-12T05:05:21;99829.38;;;10.00;83.05
66524;BME280;53350;52.210;5.160;2023-04-12T05:07:48;99821.69;;;9.99;83.34
66524;BME280;53350;52.210;5.160;2023-04-12T05:10:16;99830.25;;;10.01;83.26
66524;BME280;53350;52.210;5.160;2023-04-12T05:12:42;99829.41;;;9.99;83.59
66524;BME280;53350;52.210;5.160;2023-04-12T05:15:09;99825.22;;;9.95;84.26
66524;BME280;53350;52.210;5.160;2023-04-12T05:17:35;99824.41;;;9.94;84.61
66524;BME280;53350;52.210;5.160;2023-04-12T05:20:02;99814.19;;;9.91;84.96
66524;BME280;53350;52.210;5.160;2023-04-12T05:22:32;99822.63;;;9.96;84.26
66524;BME280;53350;52.210;5.160;2023-04-12T05:24:59;99811.41;;;9.99;83.70
66524;BME280;53350;52.210;5.160;2023-04-12T05:27:28;99813.03;;;10.03;83.93
66524;BME280;53350;52.210;5.160;2023-04-12T05:29:55;99822.41;;;10.05;84.23
66524;BME280;53350;52.210;5.160;2023-04-12T05:32:21;99823.19;;;10.07;83.55
66524;BME280;53350;52.210;5.160;2023-04-12T05:34:48;99815.25;;;10.15;83.67
66524;BME280;53350;52.210;5.160;2023-04-12T05:37:14;99812.66;;;10.17;83.80
66524;BME280;53350;52.210;5.160;2023-04-12T05:39:41;99815.28;;;10.14;84.48
66524;BME280;53350;52.210;5.160;2023-04-12T05:42:07;99816.31;;;10.08;84.33
66524;BME280;53350;52.210;5.160;2023-04-12T05:44:35;99821.03;;;10.23;83.48
66524;BME280;53350;52.210;5.160;2023-04-12T05:47:02;99807.22;;;10.27;83.12
66524;BME280;53350;52.210;5.160;2023-04-12T05:49:28;99808.66;;;10.38;83.23
66524;BME280;53350;52.210;5.160;2023-04-12T05:51:55;99812.94;;;10.39;82.97
66524;BME280;53350;52.210;5.160;2023-04-12T05:54:22;99812.22;;;10.34;83.89
66524;BME280;53350;52.210;5.160;2023-04-12T05:56:49;99814.69;;;10.37;83.44
66524;BME280;53350;52.210;5.160;2023-04-12T05:59:16;99822.28;;;10.43;83.18
66524;BME280;53350;52.210;5.160;2023-04-12T06:01:45;99819.50;;;10.49;82.89
66524;BME280;53350;52.210;5.160;2023-04-12T06:04:11;99819.47;;;10.51;83.07
66524;BME280;53350;52.210;5.160;2023-04-12T06:06:38;99823.50;;;10.59;82.81
66524;BME280;53350;52.210;5.160;2023-04-12T06:09:05;99826.88;;;10.61;82.44
66524;BME280;53350;52.210;5.160;2023-04-12T06:11:31;99827.81;;;10.59;82.83
66524;BME280;53350;52.210;5.160;2023-04-12T06:13:59;99820.00;;;10.62;82.81
66524;BME280;53350;52.210;5.160;2023-04-12T06:16:25;99817.34;;;10.65;82.77
66524;BME280;53350;52.210;5.160;2023-04-12T06:18:53;99808.63;;;10.69;82.40
66524;BME280;53350;52.210;5.160;2023-04-12T06:21:20;99819.53;;;10.79;82.41
66524;BME280;53350;52.210;5.160;2023-04-12T06:23:46;99818.44;;;10.86;82.27
66524;BME280;53350;52.210;5.160;2023-04-12T06:26:12;99812.34;;;10.89;81.97
66524;BME280;53350;52.210;5.160;2023-04-12T06:28:39;99825.78;;;10.99;81.90
66524;BME280;53350;52.210;5.160;2023-04-12T06:31:05;99817.28;;;10.96;81.56
66524;BME280;53350;52.210;5.160;2023-04-12T06:33:32;99810.44;;;10.95;81.48
66524;BME280;53350;52.210;5.160;2023-04-12T06:36:02;99800.22;;;10.92;82.22
66524;BME280;53350;52.210;5.160;2023-04-12T06:38:28;99811.25;;;10.96;82.20
66524;BME280;53350;52.210;5.160;2023-04-12T06:40:55;99811.09;;;11.02;82.22
66524;BME280;53350;52.210;5.160;2023-04-12T06:43:21;99809.09;;;11.10;82.03
66524;BME280;53350;52.210;5.160;2023-04-12T06:45:48;99804.66;;;11.16;82.01
66524;BME280;53350;52.210;5.160;2023-04-12T06:48:15;99811.53;;;11.15;82.06
66524;BME280;53350;52.210;5.160;2023-04-12T06:50:41;99805.53;;;11.14;82.23
66524;BME280;53350;52.210;5.160;2023-04-12T06:53:09;99793.69;;;11.09;82.38
66524;BME280;53350;52.210;5.160;2023-04-12T06:55:37;99791.00;;;11.12;82.72
66524;BME280;53350;52.210;5.160;2023-04-12T06:58:04;99795.94;;;11.20;82.72
66524;BME280;53350;52.210;5.160;2023-04-12T07:00:30;99803.44;;;11.27;82.71
66524;BME280;53350;52.210;5.160;2023-04-12T07:02:57;99796.31;;;11.36;82.29
66524;BME280;53350;52.210;5.160;2023-04-12T07:05:23;99804.72;;;11.41;81.84
66524;BME280;53350;52.210;5.160;2023-04-12T07:07:50;99807.25;;;11.42;81.87
66524;BME280;53350;52.210;5.160;2023-04-12T07:10:18;99805.47;;;11.44;82.12
66524;BME280;53350;52.210;5.160;2023-04-12T07:12:44;99799.31;;;11.48;82.17
66524;BME280;53350;52.210;5.160;2023-04-12T07:15:10;99799.91;;;11.57;82.32
66524;BME280;53350;52.210;5.160;2023-04-12T07:17:37;99805.00;;;11.58;82.01
66524;BME280;53350;52.210;5.160;2023-04-12T07:20:04;99808.50;;;11.57;81.44
66524;BME280;53350;52.210;5.160;2023-04-12T07:22:31;99808.53;;;11.56;82.12
66524;BME280;53350;52.210;5.160;2023-04-12T07:24:57;99812.69;;;11.60;82.06
66524;BME280;53350;52.210;5.160;2023-04-12T07:27:25;99811.69;;;11.64;81.82
66524;BME280;53350;52.210;5.160;2023-04-12T07:29:52;99812.34;;;11.71;81.78
66524;BME280;53350;52.210;5.160;2023-04-12T07:32:18;99811.41;;;11.73;81.72
66524;BME280;53350;52.210;5.160;2023-04-12T07:34:45;99812.41;;;11.69;81.92
66524;BME280;53350;52.210;5.160;2023-04-12T07:37:11;99805.50;;;11.70;81.51
66524;BME280;53350;52.210;5.160;2023-04-12T07:39:38;99801.09;;;11.73;81.79
66524;BME280;53350;52.210;5.160;2023-04-12T07:42:05;99803.44;;;11.79;82.30
66524;BME280;53350;52.210;5.160;2023-04-12T07:44:33;99798.22;;;11.81;81.69
66524;BME280;53350;52.210;5.160;2023-04-12T07:46:59;99791.22;;;11.84;81.75
66524;BME280;53350;52.210;5.160;2023-04-12T07:49:26;99796.13;;;11.92;81.77
66524;BME280;53350;52.210;5.160;2023-04-12T07:51:52;99797.69;;;11.98;81.75
66524;BME280;53350;52.210;5.160;2023-04-12T07:54:19;99789.72;;;12.04;81.26
66524;BME280;53350;52.210;5.160;2023-04-12T07:56:56;99791.25;;;12.10;81.04
66524;BME280;53350;52.210;5.160;2023-04-12T07:59:23;99795.34;;;12.15;80.70
66524;BME280;53350;52.210;5.160;2023-04-12T08:01:51;99797.94;;;12.15;80.75
66524;BME280;53350;52.210;5.160;2023-04-12T08:04:17;99788.31;;;12.19;80.65
66524;BME280;53350;52.210;5.160;2023-04-12T08:06:44;99798.47;;;12.25;80.77
66524;BME280;53350;52.210;5.160;2023-04-12T08:09:10;99792.19;;;12.31;80.39
66524;BME280;53350;52.210;5.160;2023-04-12T08:11:37;99787.72;;;12.36;79.98
66524;BME280;53350;52.210;5.160;2023-04-12T08:14:03;99784.19;;;12.39;79.86
66524;BME280;53350;52.210;5.160;2023-04-12T08:16:30;99784.00;;;12.43;79.73
66524;BME280;53350;52.210;5.160;2023-04-12T08:18:58;99786.59;;;12.43;79.42
66524;BME280;53350;52.210;5.160;2023-04-12T08:21:25;99773.31;;;12.52;79.56
66524;BME280;53350;52.210;5.160;2023-04-12T08:23:51;99772.94;;;12.63;79.80
66524;BME280;53350;52.210;5.160;2023-04-12T08:26:18;99772.41;;;12.77;79.58
66524;BME280;53350;52.210;5.160;2023-04-12T08:28:45;99769.22;;;12.93;78.96
66524;BME280;53350;52.210;5.160;2023-04-12T08:31:13;99774.56;;;13.10;77.89
66524;BME280;53350;52.210;5.160;2023-04-12T08:33:39;99769.75;;;13.23;77.45
66524;BME280;53350;52.210;5.160;2023-04-12T08:36:08;99769.16;;;13.38;75.86
66524;BME280;53350;52.210;5.160;2023-04-12T08:38:36;99778.34;;;13.46;74.06
66524;BME280;53350;52.210;5.160;2023-04-12T08:41:03;99778.16;;;13.50;73.33
66524;BME280;53350;52.210;5.160;2023-04-12T08:43:32;99779.66;;;13.56;73.15
66524;BME280;53350;52.210;5.160;2023-04-12T08:45:59;99773.38;;;13.62;72.76
66524;BME280;53350;52.210;5.160;2023-04-12T08:48:26;99775.91;;;13.63;73.23
66524;BME280;53350;52.210;5.160;2023-04-12T08:50:55;99772.34;;;13.66;71.94
66524;BME280;53350;52.210;5.160;2023-04-12T08:53:23;99779.31;;;13.64;69.74
66524;BME280;53350;52.210;5.160;2023-04-12T08:55:49;99777.81;;;13.58;69.56
66524;BME280;53350;52.210;5.160;2023-04-12T08:58:16;99767.53;;;13.56;69.92
66524;BME280;53350;52.210;5.160;2023-04-12T09:00:43;99777.00;;;13.57;70.25
66524;BME280;53350;52.210;5.160;2023-04-12T09:03:10;99765.81;;;13.57;70.25
66524;BME280;53350;52.210;5.160;2023-04-12T09:05:36;99771.63;;;13.62;70.22
66524;BME280;53350;52.210;5.160;2023-04-12T09:08:03;99766.16;;;13.68;70.15
66524;BME280;53350;52.210;5.160;2023-04-12T09:10:32;99766.75;;;13.75;69.48
66524;BME280;53350;52.210;5.160;2023-04-12T09:13:01;99751.16;;;13.77;69.24
66524;BME280;53350;52.210;5.160;2023-04-12T09:15:28;99764.84;;;13.80;69.08
66524;BME280;53350;52.210;5.160;2023-04-12T09:18:05;99750.66;;;13.89;68.55
66524;BME280;53350;52.210;5.160;2023-04-12T09:20:32;99754.66;;;13.96;67.66
66524;BME280;53350;52.210;5.160;2023-04-12T09:22:59;99748.47;;;13.99;66.07
66524;BME280;53350;52.210;5.160;2023-04-12T09:25:39;99738.97;;;13.99;64.67
66524;BME280;53350;52.210;5.160;2023-04-12T09:28:20;99750.09;;;14.01;66.32
66524;BME280;53350;52.210;5.160;2023-04-12T09:30:46;99746.03;;;14.15;65.12
66524;BME280;53350;52.210;5.160;2023-04-12T09:33:16;99753.44;;;14.24;65.12
66524;BME280;53350;52.210;5.160;2023-04-12T09:35:43;99754.91;;;14.30;63.49
66524;BME280;53350;52.210;5.160;2023-04-12T09:38:09;99764.63;;;14.24;65.53
66524;BME280;53350;52.210;5.160;2023-04-12T09:40:37;99768.41;;;14.36;64.91
66524;BME280;53350;52.210;5.160;2023-04-12T09:43:05;99770.50;;;14.47;63.55
66524;BME280;53350;52.210;5.160;2023-04-12T09:45:33;99767.63;;;14.53;63.25
66524;BME280;53350;52.210;5.160;2023-04-12T09:48:00;99758.56;;;14.64;63.19
66524;BME280;53350;52.210;5.160;2023-04-12T09:50:28;99766.66;;;14.75;61.93
66524;BME280;53350;52.210;5.160;2023-04-12T09:52:58;99771.16;;;14.71;62.51
66524;BME280;53350;52.210;5.160;2023-04-12T09:55:25;99762.25;;;14.77;61.56
66524;BME280;53350;52.210;5.160;2023-04-12T09:57:54;99766.53;;;14.78;60.39
66524;BME280;53350;52.210;5.160;2023-04-12T10:00:22;99759.78;;;14.74;58.99
66524;BME280;53350;52.210;5.160;2023-04-12T10:02:51;99755.66;;;14.70;60.45
66524;BME280;53350;52.210;5.160;2023-04-12T10:05:21;99731.81;;;14.63;60.75
66524;BME280;53350;52.210;5.160;2023-04-12T10:07:49;99734.78;;;14.73;60.71
66524;BME280;53350;52.210;5.160;2023-04-12T10:10:17;99738.91;;;14.77;61.57
66524;BME280;53350;52.210;5.160;2023-04-12T10:12:46;99747.16;;;14.85;60.78
66524;BME280;53350;52.210;5.160;2023-04-12T10:15:15;99744.19;;;14.93;58.93
66524;BME280;53350;52.210;5.160;2023-04-12T10:17:43;99747.81;;;14.90;58.55
66524;BME280;53350;52.210;5.160;2023-04-12T10:20:10;99740.94;;;14.89;58.10
66524;BME280;53350;52.210;5.160;2023-04-12T10:22:38;99738.56;;;14.85;57.13
66524;BME280;53350;52.210;5.160;2023-04-12T10:25:09;99739.69;;;14.79;58.65
66524;BME280;53350;52.210;5.160;2023-04-12T10:27:38;99738.72;;;14.82;57.94
66524;BME280;53350;52.210;5.160;2023-04-12T10:30:18;99739.09;;;14.91;57.05
66524;BME280;53350;52.210;5.160;2023-04-12T10:32:45;99735.44;;;14.95;57.39
66524;BME280;53350;52.210;5.160;2023-04-12T10:35:12;99739.34;;;15.04;57.08
66524;BME280;53350;52.210;5.160;2023-04-12T10:37:57;99733.94;;;15.26;56.45
66524;BME280;53350;52.210;5.160;2023-04-12T10:40:24;99732.50;;;15.38;55.54
66524;BME280;53350;52.210;5.160;2023-04-12T10:43:24;99737.75;;;15.54;55.55
66524;BME280;53350;52.210;5.160;2023-04-12T10:45:53;99741.56;;;15.64;53.15
66524;BME280;53350;52.210;5.160;2023-04-12T10:48:30;99739.41;;;15.55;53.04
66524;BME280;53350;52.210;5.160;2023-04-12T10:51:14;99740.13;;;15.41;53.48
66524;BME280;53350;52.210;5.160;2023-04-12T10:53:42;99752.56;;;15.35;53.74
66524;BME280;53350;52.210;5.160;2023-04-12T10:56:36;99743.94;;;15.17;52.64
66524;BME280;53350;52.210;5.160;2023-04-12T10:59:03;99744.63;;;15.20;53.15
66524;BME280;53350;52.210;5.160;2023-04-12T11:01:32;99749.22;;;15.15;54.25
66524;BME280;53350;52.210;5.160;2023-04-12T11:04:18;99741.28;;;15.18;53.75
66524;BME280;53350;52.210;5.160;2023-04-12T11:06:53;99734.41;;;15.17;52.92
66524;BME280;53350;52.210;5.160;2023-04-12T11:09:23;99739.50;;;15.19;52.17
66524;BME280;53350;52.210;5.160;2023-04-12T11:11:50;99740.13;;;15.24;51.20
66524;BME280;53350;52.210;5.160;2023-04-12T11:14:23;99738.44;;;15.23;51.27
66524;BME280;53350;52.210;5.160;2023-04-12T11:17:20;99741.03;;;15.23;51.29
66524;BME280;53350;52.210;5.160;2023-04-12T11:19:56;99743.63;;;15.40;50.44
66524;BME280;53350;52.210;5.160;2023-04-12T11:22:26;99750.03;;;15.33;50.35
66524;BME280;53350;52.210;5.160;2023-04-12T11:24:55;99742.56;;;15.27;50.81
66524;BME280;53350;52.210;5.160;2023-04-12T11:27:23;99757.28;;;15.26;52.09
66524;BME280;53350;52.210;5.160;2023-04-12T11:29:51;99741.44;;;15.33;52.28
66524;BME280;53350;52.210;5.160;2023-04-12T11:32:22;99739.16;;;15.44;48.15
66524;BME280;53350;52.210;5.160;2023-04-12T11:34:49;99740.13;;;15.41;47.22
66524;BME280;53350;52.210;5.160;2023-04-12T11:37:17;99745.56;;;15.37;46.62
66524;BME280;53350;52.210;5.160;2023-04-12T11:39:45;99746.63;;;15.33;46.42
66524;BME280;53350;52.210;5.160;2023-04-12T11:42:13;99752.88;;;15.28;46.95
66524;BME280;53350;52.210;5.160;2023-04-12T11:44:41;99759.06;;;15.26;47.66
66524;BME280;53350;52.210;5.160;2023-04-12T11:47:13;99756.06;;;15.34;46.85
66524;BME280;53350;52.210;5.160;2023-04-12T11:49:44;99751.19;;;15.27;47.16
66524;BME280;53350;52.210;5.160;2023-04-12T11:52:11;99750.66;;;15.21;48.38
66524;BME280;53350;52.210;5.160;2023-04-12T11:54:43;99754.84;;;15.23;49.22
66524;BME280;53350;52.210;5.160;2023-04-12T11:57:11;99758.50;;;15.19;49.99
66524;BME280;53350;52.210;5.160;2023-04-12T11:59:38;99761.78;;;15.23;50.42
66524;BME280;53350;52.210;5.160;2023-04-12T12:02:06;99757.09;;;15.31;49.79
66524;BME280;53350;52.210;5.160;2023-04-12T12:04:33;99753.28;;;15.38;47.91
66524;BME280;53350;52.210;5.160;2023-04-12T12:07:01;99755.63;;;15.43;46.42
66524;BME280;53350;52.210;5.160;2023-04-12T12:09:28;99757.16;;;15.47;45.44
66524;BME280;53350;52.210;5.160;2023-04-12T12:11:55;99762.19;;;15.50;43.65
66524;BME280;53350;52.210;5.160;2023-04-12T12:14:22;99762.50;;;15.44;43.27
66524;BME280;53350;52.210;5.160;2023-04-12T12:16:53;99761.66;;;15.43;43.22
66524;BME280;53350;52.210;5.160;2023-04-12T12:19:28;99758.53;;;15.37;42.74
66524;BME280;53350;52.210;5.160;2023-04-12T12:22:06;99757.31;;;15.44;42.58
66524;BME280;53350;52.210;5.160;2023-04-12T12:24:32;99772.66;;;15.48;41.68
66524;BME280;53350;52.210;5.160;2023-04-12T12:27:00;99769.97;;;15.50;41.70
66524;BME280;53350;52.210;5.160;2023-04-12T12:29:33;99760.41;;;15.51;39.91
66524;BME280;53350;52.210;5.160;2023-04-12T12:32:00;99772.03;;;15.43;39.87
66524;BME280;53350;52.210;5.160;2023-04-12T12:34:30;99763.09;;;15.32;40.86
66524;BME280;53350;52.210;5.160;2023-04-12T12:36:58;99774.13;;;15.18;42.18
66524;BME280;53350;52.210;5.160;2023-04-12T12:39:27;99773.38;;;15.16;43.21
66524;BME280;53350;52.210;5.160;2023-04-12T12:41:55;99778.81;;;15.11;44.72
66524;BME280;53350;52.210;5.160;2023-04-12T12:44:22;99775.22;;;15.13;43.39
66524;BME280;53350;52.210;5.160;2023-04-12T12:46:48;99778.94;;;15.08;43.42
66524;BME280;53350;52.210;5.160;2023-04-12T12:49:15;99780.50;;;15.12;40.35
66524;BME280;53350;52.210;5.160;2023-04-12T12:51:42;99780.53;;;15.10;38.95
66524;BME280;53350;52.210;5.160;2023-04-12T12:54:08;99785.94;;;15.06;40.06
66524;BME280;53350;52.210;5.160;2023-04-12T12:56:36;99792.19;;;15.02;39.83
66524;BME280;53350;52.210;5.160;2023-04-12T12:59:03;99782.03;;;14.97;39.91
66524;BME280;53350;52.210;5.160;2023-04-12T13:01:29;99797.47;;;14.81;39.99
66524;BME280;53350;52.210;5.160;2023-04-12T13:03:56;99789.22;;;14.73;40.03